createdAt,value
2022-10-26T06:17:54.331Z,12.20
2022-10-26T06:20:51.731Z,12.18
2022-10-26T06:23:45.311Z,12.18
2022-10-26T06:26:36.823Z,12.18
2022-10-26T06:29:28.258Z,12.21
2022-10-26T06:32:06.158Z,12.20
2022-10-26T06:34:51.051Z,12.21
2022-10-26T06:37:29.447Z,12.18
2022-10-26T06:40:07.953Z,12.20
2022-10-26T06:42:46.852Z,12.21
2022-10-26T06:45:25.911Z,12.23
2022-10-26T06:48:10.973Z,12.23
2022-10-26T06:50:56.725Z,12.26
2022-10-26T06:56:18.308Z,12.27
2022-10-26T06:59:02.320Z,12.28
2022-10-26T07:01:41.742Z,12.29
2022-10-26T07:04:19.152Z,12.30
2022-10-26T07:06:59.270Z,12.34
2022-10-26T07:09:36.583Z,12.36
2022-10-26T07:12:13.465Z,12.39
2022-10-26T07:14:50.975Z,12.41
2022-10-26T07:17:28.765Z,12.45
2022-10-26T07:20:06.067Z,12.52
2022-10-26T07:22:46.160Z,12.54
2022-10-26T07:25:23.874Z,12.59
2022-10-26T07:28:02.221Z,12.64
2022-10-26T07:30:40.229Z,12.69
2022-10-26T07:33:18.138Z,12.77
2022-10-26T07:35:56.567Z,12.82
2022-10-26T07:38:36.567Z,12.89
2022-10-26T07:41:14.548Z,12.93
2022-10-26T07:43:51.531Z,13.01
2022-10-26T07:46:30.029Z,13.06
2022-10-26T07:49:06.735Z,13.15
2022-10-26T07:51:44.084Z,13.22
2022-10-26T07:54:24.006Z,13.30
2022-10-26T07:57:01.547Z,13.33
2022-10-26T07:59:38.438Z,13.36
2022-10-26T08:02:15.672Z,13.43
2022-10-26T08:04:53.194Z,13.54
2022-10-26T08:07:30.419Z,13.61
2022-10-26T08:10:11.303Z,13.67
2022-10-26T08:12:48.538Z,13.65
2022-10-26T08:15:25.582Z,13.72
2022-10-26T08:18:02.704Z,13.70
2022-10-26T08:20:39.648Z,13.77
2022-10-26T08:23:16.713Z,13.78
2022-10-26T08:26:00.968Z,13.85
2022-10-26T08:28:38.223Z,13.85
2022-10-26T08:31:14.975Z,13.92
2022-10-26T08:33:52.245Z,13.95
2022-10-26T08:36:31.262Z,14.01
2022-10-26T08:39:08.560Z,14.05
2022-10-26T08:41:53.856Z,14.11
2022-10-26T08:44:38.326Z,14.10
2022-10-26T08:47:24.111Z,14.13
2022-10-26T08:50:06.649Z,14.20
2022-10-26T08:52:51.669Z,14.25
2022-10-26T08:55:34.781Z,14.29
2022-10-26T08:58:19.706Z,14.35
2022-10-26T09:00:57.528Z,14.35
2022-10-26T09:03:34.675Z,14.41
2022-10-26T09:06:28.483Z,14.43
2022-10-26T09:09:11.612Z,14.39
2022-10-26T09:12:05.627Z,14.46
2022-10-26T09:14:57.217Z,14.52
2022-10-26T09:17:46.179Z,14.55
2022-10-26T09:21:01.150Z,14.60
2022-10-26T09:23:58.802Z,14.70
2022-10-26T09:26:42.443Z,14.80
2022-10-26T09:29:19.678Z,14.98
2022-10-26T09:32:03.353Z,15.14
2022-10-26T09:34:49.601Z,15.38
2022-10-26T09:37:31.813Z,15.47
2022-10-26T09:40:19.627Z,15.56
2022-10-26T09:43:01.431Z,15.90
2022-10-26T09:45:42.114Z,16.13
2022-10-26T09:48:30.796Z,16.44
2022-10-26T09:51:08.295Z,16.53
2022-10-26T09:53:45.076Z,16.72
2022-10-26T09:56:22.946Z,16.83
2022-10-26T09:59:04.966Z,16.81
2022-10-26T10:01:42.628Z,16.95
2022-10-26T10:04:26.774Z,16.95
2022-10-26T10:07:17.338Z,17.07
2022-10-26T10:10:12.538Z,17.06
2022-10-26T10:12:52.804Z,17.31
2022-10-26T10:15:30.224Z,17.51
2022-10-26T10:18:07.528Z,17.79
2022-10-26T10:20:59.718Z,17.74
2022-10-26T10:23:39.409Z,17.69
2022-10-26T10:26:16.240Z,17.57
2022-10-26T10:29:04.220Z,17.56
2022-10-26T10:31:41.071Z,17.62
2022-10-26T10:34:21.104Z,17.54
2022-10-26T10:37:01.295Z,17.50
2022-10-26T10:39:43.013Z,17.43
2022-10-26T10:42:24.580Z,17.58
2022-10-26T10:45:03.110Z,17.65
2022-10-26T10:47:43.163Z,17.59
2022-10-26T10:50:23.941Z,17.64
2022-10-26T10:53:25.757Z,17.56
2022-10-26T10:56:24.059Z,17.52
2022-10-26T10:59:28.063Z,17.45
2022-10-26T11:02:32.772Z,17.27
2022-10-26T11:05:27.488Z,17.26
2022-10-26T11:08:13.241Z,17.14
2022-10-26T11:11:01.471Z,17.01
2022-10-26T11:13:44.024Z,16.81
2022-10-26T11:16:26.947Z,16.75
2022-10-26T11:19:07.752Z,16.85
2022-10-26T11:21:47.776Z,16.67
2022-10-26T11:24:30.249Z,16.71
2022-10-26T11:27:20.035Z,16.64
2022-10-26T11:30:05.801Z,16.57
2022-10-26T11:32:50.407Z,16.44
2022-10-26T11:35:32.682Z,16.38
2022-10-26T11:38:28.219Z,16.43
2022-10-26T11:41:22.864Z,16.33
2022-10-26T11:44:09.329Z,16.25
2022-10-26T11:46:50.494Z,16.14
2022-10-26T11:49:36.037Z,16.09
2022-10-26T11:52:19.601Z,16.01
2022-10-26T11:55:00.836Z,15.93
2022-10-26T11:57:40.968Z,15.92
2022-10-26T12:00:25.214Z,15.85
2022-10-26T12:03:10.122Z,15.86
2022-10-26T12:05:52.099Z,15.78
2022-10-26T12:08:34.876Z,15.78
2022-10-26T12:11:31.056Z,15.75
2022-10-26T12:14:22.503Z,15.72
2022-10-26T12:17:11.542Z,15.70
2022-10-26T12:19:54.317Z,15.66
2022-10-26T12:22:36.231Z,15.67
2022-10-26T12:25:25.688Z,15.63
2022-10-26T12:28:03.181Z,15.63
2022-10-26T12:30:40.886Z,15.56
2022-10-26T12:33:52.072Z,15.54
2022-10-26T12:37:13.575Z,15.56
2022-10-26T12:39:50.275Z,15.56
2022-10-26T12:42:34.486Z,15.55
2022-10-26T12:45:25.770Z,15.57
2022-10-26T12:48:15.639Z,15.65
2022-10-26T12:51:47.928Z,15.83
2022-10-26T12:54:40.472Z,16.00
2022-10-26T12:57:28.138Z,16.17
2022-10-26T13:00:09.322Z,16.23
2022-10-26T13:03:04.982Z,16.38
2022-10-26T13:06:26.986Z,16.57
2022-10-26T13:09:20.009Z,16.68
2022-10-26T13:12:01.143Z,16.72
2022-10-26T13:14:42.361Z,16.64
2022-10-26T13:17:32.194Z,16.56
2022-10-26T13:20:20.858Z,16.42
2022-10-26T13:22:58.594Z,16.38
2022-10-26T13:25:39.673Z,16.31
2022-10-26T13:28:37.040Z,16.14
2022-10-26T13:31:59.660Z,16.14
2022-10-26T13:34:37.868Z,16.06
2022-10-26T13:37:24.839Z,16.05
2022-10-26T13:40:04.068Z,16.12
2022-10-26T13:42:52.954Z,16.14
2022-10-26T13:45:34.478Z,16.18
2022-10-26T13:48:20.454Z,16.18
2022-10-26T13:51:01.956Z,16.17
2022-10-26T13:53:47.147Z,16.19
2022-10-26T13:56:36.531Z,16.13
2022-10-26T14:02:27.060Z,16.10
2022-10-26T14:05:08.050Z,16.04
2022-10-26T14:07:51.443Z,15.95
2022-10-26T14:10:36.507Z,15.94
2022-10-26T14:13:19.623Z,15.88
2022-10-26T14:16:02.611Z,15.83
2022-10-26T14:18:40.823Z,15.82
2022-10-26T14:21:22.729Z,15.80
2022-10-26T14:24:08.111Z,15.71
2022-10-26T14:26:46.188Z,15.67
2022-10-26T14:29:27.918Z,15.64
2022-10-26T14:32:26.363Z,15.64
2022-10-26T14:35:04.590Z,15.63
2022-10-26T14:37:49.607Z,15.62
2022-10-26T14:40:32.981Z,15.63
2022-10-26T14:43:13.516Z,15.55
2022-10-26T14:45:55.940Z,15.52
2022-10-26T14:48:40.330Z,15.50
2022-10-26T14:51:24.159Z,15.48
2022-10-26T14:54:05.733Z,15.46
2022-10-26T14:56:45.732Z,15.41
2022-10-26T14:59:30.516Z,15.38
2022-10-26T15:02:25.339Z,15.38
2022-10-26T15:05:24.386Z,15.34
2022-10-26T15:08:06.231Z,15.27
2022-10-26T15:11:11.456Z,15.27
2022-10-26T15:13:52.255Z,15.23
2022-10-26T15:16:35.543Z,15.24
2022-10-26T15:19:24.760Z,15.24
2022-10-26T15:22:07.437Z,15.23
2022-10-26T15:24:46.405Z,15.20
2022-10-26T15:27:23.584Z,15.19
2022-10-26T15:30:22.907Z,15.24
2022-10-26T15:33:15.565Z,15.20
2022-10-26T15:36:09.398Z,15.16
2022-10-26T15:38:52.308Z,15.17
2022-10-26T15:41:34.148Z,15.09
2022-10-26T15:44:20.600Z,15.10
2022-10-26T15:47:08.903Z,15.08
2022-10-26T15:49:48.394Z,15.03
2022-10-26T15:52:28.966Z,15.02
2022-10-26T15:55:11.194Z,14.97
2022-10-26T15:57:51.210Z,14.89
2022-10-26T16:00:30.516Z,14.88
2022-10-26T16:03:09.952Z,14.85
2022-10-26T16:05:50.901Z,14.85
2022-10-26T16:08:34.057Z,14.83
2022-10-26T16:11:16.123Z,14.83
2022-10-26T16:13:58.339Z,14.77
2022-10-26T16:16:42.191Z,14.74
2022-10-26T16:19:31.192Z,14.71
2022-10-26T16:22:09.596Z,14.66
2022-10-26T16:24:46.773Z,14.63
2022-10-26T16:27:26.647Z,14.56
2022-10-26T16:30:03.975Z,14.48
2022-10-26T16:32:45.943Z,14.43
2022-10-26T16:35:25.410Z,14.39
2022-10-26T16:38:07.300Z,14.36
2022-10-26T16:40:51.558Z,14.33
2022-10-26T16:43:39.971Z,14.34
2022-10-26T16:46:21.624Z,14.32
2022-10-26T16:48:58.896Z,14.27
2022-10-26T16:51:37.472Z,14.26
2022-10-26T16:54:18.174Z,14.26
2022-10-26T16:56:56.216Z,14.21
2022-10-26T16:59:38.040Z,14.14
2022-10-26T17:02:19.720Z,14.08
2022-10-26T17:05:02.735Z,14.04
2022-10-26T17:07:44.148Z,13.99
2022-10-26T17:10:23.311Z,13.98
2022-10-26T17:13:04.691Z,13.96
2022-10-26T17:15:46.269Z,13.94
2022-10-26T17:18:25.914Z,13.93
2022-10-26T17:21:03.805Z,13.89
2022-10-26T17:23:42.578Z,13.87
2022-10-26T17:26:22.370Z,13.84
2022-10-26T17:29:02.770Z,13.79
2022-10-26T17:31:44.149Z,13.73
2022-10-26T17:34:23.247Z,13.65
2022-10-26T17:37:00.289Z,13.60
2022-10-26T17:39:38.143Z,13.52
2022-10-26T17:42:15.767Z,13.49
2022-10-26T17:44:54.013Z,13.40
2022-10-26T17:47:34.610Z,13.34
2022-10-26T17:50:13.550Z,13.25
2022-10-26T17:52:51.527Z,13.17
2022-10-26T17:55:30.592Z,13.05
2022-10-26T17:58:09.221Z,13.04
2022-10-26T18:00:54.371Z,12.99
2022-10-26T18:03:35.760Z,12.96
2022-10-26T18:06:14.424Z,12.92
2022-10-26T18:08:52.211Z,12.86
2022-10-26T18:14:28.776Z,12.73
2022-10-26T18:17:07.337Z,12.66
2022-10-26T18:19:51.607Z,12.67
2022-10-26T18:22:30.143Z,12.61
2022-10-26T18:25:14.183Z,12.57
2022-10-26T18:27:55.646Z,12.50
2022-10-26T18:30:33.435Z,12.45
2022-10-26T18:33:13.245Z,12.34
2022-10-26T18:35:53.268Z,12.26
2022-10-26T18:38:33.357Z,12.17
2022-10-26T18:41:12.252Z,12.10
2022-10-26T18:43:57.418Z,12.07
2022-10-26T18:46:36.947Z,12.01
2022-10-26T18:49:17.476Z,11.93
2022-10-26T18:52:00.673Z,11.91
2022-10-26T18:54:39.398Z,11.85
2022-10-26T18:57:16.779Z,11.84
2022-10-26T18:59:55.187Z,11.80
2022-10-26T19:02:33.407Z,11.80
2022-10-26T19:05:12.764Z,11.77
2022-10-26T19:07:54.190Z,11.81
2022-10-26T19:13:31.335Z,11.76
2022-10-26T19:16:33.245Z,11.73
2022-10-26T19:19:14.753Z,11.69
2022-10-26T19:21:54.315Z,11.69
2022-10-26T19:24:39.456Z,11.69
2022-10-26T19:27:20.508Z,11.62
2022-10-26T19:30:05.634Z,11.62
2022-10-26T19:32:47.319Z,11.58
2022-10-26T19:35:28.396Z,11.57
2022-10-26T19:38:08.919Z,11.51
2022-10-26T19:40:49.849Z,11.52
2022-10-26T19:43:35.642Z,11.51
2022-10-26T19:46:17.236Z,11.47
